Time;durP1;ratioP1;P1;durP2;ratioP2;P2;SDS_P1;SDS_P2;PMS_P1;PMS_P2;Temp;Humidity;BMP_temperature;BMP_pressure;BME280_temperature;BME280_humidity;BME280_pressure;Samples;Min_cycle;Max_cycle;Signal;HPM_P1;HPM_P2
2023/04/09 00:00:22;;;;;;;17.38;13.13;;;12.10;79.20;;;;;;4945023;29;20508;-87
2023/04/09 00:02:48;;;;;;;18.00;13.82;;;12.00;79.10;;;;;;4944944;29;20046;-88
2023/04/09 00:05:14;;;;;;;16.73;12.65;;;12.00;79.10;;;;;;4942844;29;20031;-86
2023/04/09 00:07:39;;;;;;;17.00;13.38;;;12.00;79.00;;;;;;4937192;29;20030;-87
2023/04/09 00:10:05;;;;;;;17.60;13.27;;;12.00;79.10;;;;;;4942885;29;20051;-87
2023/04/09 00:12:34;;;;;;;17.20;13.18;;;12.00;79.00;;;;;;4943658;29;20020;-84
2023/04/09 00:14:59;;;;;;;17.15;13.02;;;12.00;79.00;;;;;;4942840;29;20059;-87
2023/04/09 00:17:25;;;;;;;17.27;13.50;;;12.10;79.00;;;;;;4941408;29;20440;-86
2023/04/09 00:19:50;;;;;;;17.50;13.60;;;12.00;79.10;;;;;;4940176;29;20031;-88
2023/04/09 00:22:16;;;;;;;17.85;13.40;;;12.00;79.00;;;;;;4942239;29;20077;-86
2023/04/09 00:24:41;;;;;;;19.73;13.88;;;12.00;79.00;;;;;;4942306;29;20524;-88
2023/04/09 00:27:07;;;;;;;17.55;12.88;;;12.10;79.00;;;;;;4942815;29;20056;-88
2023/04/09 00:29:32;;;;;;;17.67;13.07;;;12.10;79.00;;;;;;4965112;29;20399;-88
2023/04/09 00:31:58;;;;;;;17.88;13.95;;;12.00;79.00;;;;;;4950080;29;20082;-87
2023/04/09 00:34:23;;;;;;;18.80;14.27;;;12.00;79.00;;;;;;4969583;29;20035;-88
2023/04/09 00:36:49;;;;;;;18.13;13.27;;;12.00;79.00;;;;;;4952162;29;20508;-86
2023/04/09 00:39:15;;;;;;;18.42;14.07;;;12.00;79.00;;;;;;4949504;29;20028;-88
2023/04/09 00:41:40;;;;;;;17.48;12.98;;;12.00;79.00;;;;;;4951536;29;20056;-88
2023/04/09 00:44:06;;;;;;;17.63;13.45;;;12.00;78.90;;;;;;4950767;29;20020;-88
2023/04/09 00:46:31;;;;;;;17.55;13.52;;;12.00;78.90;;;;;;4950784;29;20027;-87
2023/04/09 00:48:57;;;;;;;18.13;13.40;;;12.00;78.90;;;;;;4948163;29;20015;-87
2023/04/09 00:51:23;;;;;;;18.25;13.23;;;12.00;78.90;;;;;;4943108;29;20027;-86
2023/04/09 00:53:48;;;;;;;17.65;13.23;;;12.00;78.90;;;;;;4942471;29;20028;-87
2023/04/09 00:56:17;;;;;;;19.40;13.95;;;12.00;78.90;;;;;;4949853;29;20039;-87
2023/04/09 00:58:43;;;;;;;17.52;13.13;;;12.00;78.80;;;;;;4949967;29;20046;-87
2023/04/09 01:01:08;;;;;;;16.98;13.60;;;12.00;78.80;;;;;;4945665;29;20026;-88
2023/04/09 01:03:34;;;;;;;18.92;14.10;;;12.00;78.80;;;;;;4965561;29;20027;-87
2023/04/09 01:06:10;;;;;;;19.33;14.43;;;11.90;78.80;;;;;;4947148;29;20074;-88
2023/04/09 01:08:47;;;;;;;18.38;13.90;;;12.00;78.80;;;;;;4947189;29;20030;-87
2023/04/09 01:11:34;;;;;;;18.23;13.88;;;12.00;78.80;;;;;;4946686;29;20050;-86
2023/04/09 01:14:16;;;;;;;16.77;12.98;;;12.00;78.80;;;;;;4965710;29;20400;-86
2023/04/09 01:16:46;;;;;;;18.38;14.20;;;12.00;78.70;;;;;;4945944;29;20373;-87
2023/04/09 01:19:53;;;;;;;18.52;14.13;;;12.00;78.80;;;;;;4942442;29;20052;-86
2023/04/09 01:22:56;;;;;;;18.10;14.25;;;12.00;78.70;;;;;;4943087;29;20535;-86
2023/04/09 01:26:00;;;;;;;18.27;13.82;;;12.00;78.80;;;;;;4922762;29;20043;-86
2023/04/09 01:28:38;;;;;;;18.63;13.20;;;12.00;78.70;;;;;;4944435;29;20114;-87
2023/04/09 01:31:10;;;;;;;17.63;13.32;;;12.00;78.70;;;;;;4961519;29;20114;-87
2023/04/09 01:33:37;;;;;;;17.90;13.40;;;12.00;78.70;;;;;;4962125;29;20047;-85
2023/04/09 01:36:04;;;;;;;19.38;14.10;;;12.00;78.60;;;;;;4961785;29;20058;-86
2023/04/09 01:38:29;;;;;;;19.38;14.52;;;12.00;78.70;;;;;;4943196;28;20031;-86
2023/04/09 01:40:56;;;;;;;18.45;14.00;;;12.00;78.70;;;;;;4944214;29;20511;-87
2023/04/09 01:43:24;;;;;;;18.00;13.65;;;12.00;78.70;;;;;;4961937;29;20038;-86
2023/04/09 01:45:50;;;;;;;19.15;14.23;;;12.00;78.70;;;;;;4959981;29;20024;-87
2023/04/09 01:48:16;;;;;;;19.60;14.45;;;12.00;78.60;;;;;;4960029;29;20038;-86
2023/04/09 01:50:42;;;;;;;20.38;14.68;;;12.00;78.60;;;;;;4939973;29;20027;-86
2023/04/09 01:53:08;;;;;;;19.20;14.48;;;12.00;78.60;;;;;;4956782;29;20033;-88
2023/04/09 01:55:33;;;;;;;18.42;13.95;;;12.00;78.60;;;;;;4938843;29;20667;-86
2023/04/09 01:57:59;;;;;;;17.48;13.60;;;12.00;78.60;;;;;;4959407;29;20035;-87
2023/04/09 02:00:37;;;;;;;19.35;13.85;;;12.00;78.60;;;;;;4959940;29;20054;-86
2023/04/09 02:03:23;;;;;;;19.50;13.45;;;12.00;78.60;;;;;;4941029;29;20042;-88
2023/04/09 02:06:05;;;;;;;18.33;13.63;;;12.00;78.60;;;;;;4940757;29;20122;-87
2023/04/09 02:08:33;;;;;;;18.42;14.20;;;12.00;78.50;;;;;;4938623;29;20027;-87
2023/04/09 02:11:02;;;;;;;18.67;14.07;;;12.00;79.10;;;;;;4956675;29;20111;-87
2023/04/09 02:13:30;;;;;;;19.38;14.18;;;12.00;78.50;;;;;;4940243;29;20020;-87
2023/04/09 02:15:57;;;;;;;19.15;14.20;;;12.00;78.50;;;;;;4955249;29;20031;-88
2023/04/09 02:18:27;;;;;;;18.75;14.32;;;12.00;78.40;;;;;;4938659;29;20040;-87
2023/04/09 02:20:54;;;;;;;17.25;13.27;;;12.00;78.50;;;;;;4939033;29;20031;-86
2023/04/09 02:23:20;;;;;;;19.60;14.43;;;12.00;78.50;;;;;;4939793;29;20055;-87
2023/04/09 02:25:46;;;;;;;19.05;13.88;;;12.00;78.40;;;;;;4940043;29;20027;-88
2023/04/09 02:28:12;;;;;;;17.98;13.38;;;12.00;78.40;;;;;;4957576;29;20507;-87
2023/04/09 02:30:37;;;;;;;19.55;14.73;;;12.00;78.40;;;;;;4957266;29;20027;-87
2023/04/09 02:33:03;;;;;;;19.92;14.45;;;12.00;78.40;;;;;;4937243;29;20035;-86
2023/04/09 02:35:29;;;;;;;18.85;13.52;;;12.00;78.40;;;;;;4927088;29;20024;-87
2023/04/09 02:37:54;;;;;;;19.73;14.13;;;12.00;78.40;;;;;;4936905;29;20083;-86
2023/04/09 02:40:20;;;;;;;19.05;14.35;;;12.00;78.40;;;;;;4920145;29;20024;-86
2023/04/09 02:42:45;;;;;;;20.33;14.82;;;12.00;78.40;;;;;;4920510;29;20063;-87
2023/04/09 02:45:11;;;;;;;21.25;15.02;;;12.00;78.20;;;;;;4920207;29;20036;-86
2023/04/09 02:47:36;;;;;;;19.52;14.70;;;12.00;78.30;;;;;;4918910;29;20026;-86
2023/04/09 02:50:02;;;;;;;19.63;14.20;;;12.00;78.20;;;;;;4919820;29;20543;-87
2023/04/09 02:52:28;;;;;;;18.13;14.27;;;12.00;78.20;;;;;;4918194;29;20056;-87
2023/04/09 02:54:53;;;;;;;20.15;14.27;;;12.00;78.20;;;;;;4918878;29;20075;-86
2023/04/09 02:57:19;;;;;;;17.73;13.95;;;12.00;78.20;;;;;;4918892;29;20019;-87
2023/04/09 02:59:45;;;;;;;18.88;14.55;;;12.00;78.20;;;;;;4918758;29;20118;-87
2023/04/09 03:02:11;;;;;;;20.70;14.85;;;12.00;78.20;;;;;;4918960;29;20030;-86
2023/04/09 03:04:37;;;;;;;20.05;14.90;;;12.00;78.20;;;;;;4918632;29;20059;-87
2023/04/09 03:07:03;;;;;;;19.30;14.15;;;12.00;78.20;;;;;;4918774;29;20024;-87
2023/04/09 03:09:29;;;;;;;19.58;14.73;;;12.00;78.20;;;;;;4918820;29;20043;-88
2023/04/09 03:11:56;;;;;;;20.48;14.52;;;12.00;78.20;;;;;;4918859;29;20106;-86
2023/04/09 03:14:24;;;;;;;19.05;13.82;;;12.00;78.10;;;;;;4922449;29;20024;-88
2023/04/09 03:16:49;;;;;;;19.05;14.02;;;11.90;78.00;;;;;;4928885;29;20024;-87
2023/04/09 03:19:15;;;;;;;19.42;13.85;;;11.90;78.10;;;;;;4928811;29;20027;-89
2023/04/09 03:21:41;;;;;;;19.45;14.05;;;12.00;78.10;;;;;;4931470;29;20079;-88
2023/04/09 03:24:07;;;;;;;19.65;14.75;;;11.90;78.00;;;;;;4929048;29;20075;-87
2023/04/09 03:26:35;;;;;;;18.50;13.77;;;11.90;78.00;;;;;;4926713;29;20027;-88
2023/04/09 03:29:04;;;;;;;18.90;14.82;;;11.90;78.00;;;;;;4927588;29;20023;-88
2023/04/09 03:31:31;;;;;;;19.73;14.77;;;12.00;78.00;;;;;;4926998;29;20028;-89
2023/04/09 03:33:56;;;;;;;19.23;14.48;;;11.90;77.90;;;;;;4923971;29;20024;-88
2023/04/09 03:36:22;;;;;;;20.67;14.93;;;11.90;78.00;;;;;;4923181;29;20087;-86
2023/04/09 03:38:47;;;;;;;19.55;14.15;;;11.90;77.90;;;;;;4924899;29;20063;-87
2023/04/09 03:41:13;;;;;;;18.80;14.15;;;11.90;77.90;;;;;;4925219;29;20030;-87
2023/04/09 03:43:38;;;;;;;19.60;15.10;;;11.90;77.90;;;;;;4921990;29;20095;-87
2023/04/09 03:46:11;;;;;;;19.15;14.07;;;11.90;77.90;;;;;;4921490;29;20031;-86
2023/04/09 03:48:37;;;;;;;19.15;14.35;;;11.90;77.90;;;;;;4918570;29;20443;-87
2023/04/09 03:51:03;;;;;;;19.00;14.20;;;11.90;77.90;;;;;;4919266;29;20163;-87
2023/04/09 03:53:28;;;;;;;18.98;14.50;;;11.90;77.90;;;;;;4919828;29;20024;-88
2023/04/09 03:55:54;;;;;;;18.35;13.98;;;11.90;77.90;;;;;;4924293;29;20090;-88
2023/04/09 03:58:19;;;;;;;20.75;14.93;;;11.90;77.80;;;;;;4924710;29;20096;-87
2023/04/09 04:00:45;;;;;;;20.35;14.63;;;11.90;77.90;;;;;;4943266;29;20036;-86
2023/04/09 04:03:13;;;;;;;19.23;14.55;;;11.90;77.80;;;;;;4927228;29;20083;-87
2023/04/09 04:05:38;;;;;;;20.30;14.60;;;11.90;77.90;;;;;;4927955;29;20564;-87
2023/04/09 04:08:04;;;;;;;19.70;14.23;;;11.90;77.90;;;;;;4930965;29;20067;-89
2023/04/09 04:10:29;;;;;;;18.63;14.32;;;11.90;77.90;;;;;;4933440;29;20039;-88
2023/04/09 04:12:55;;;;;;;20.98;15.35;;;11.90;77.80;;;;;;4932329;29;20085;-88
2023/04/09 04:15:20;;;;;;;20.88;15.18;;;11.90;77.90;;;;;;4931194;29;20040;-89
2023/04/09 04:17:46;;;;;;;19.45;14.27;;;11.90;77.90;;;;;;4948048;29;20042;-88
2023/04/09 04:20:12;;;;;;;19.20;14.65;;;11.90;77.90;;;;;;4930924;29;20024;-87
2023/04/09 04:22:37;;;;;;;21.17;15.57;;;11.90;77.80;;;;;;4930626;29;20031;-87
2023/04/09 04:25:03;;;;;;;21.13;16.30;;;11.90;77.80;;;;;;4929402;29;20028;-88
2023/04/09 04:27:29;;;;;;;19.80;14.85;;;11.90;77.80;;;;;;4928971;29;20027;-87
2023/04/09 04:29:57;;;;;;;18.60;14.45;;;11.90;77.80;;;;;;4929157;29;20024;-87
2023/04/09 04:32:23;;;;;;;19.83;15.20;;;11.90;77.80;;;;;;4928848;29;20110;-87
2023/04/09 04:34:49;;;;;;;20.45;15.43;;;11.90;77.90;;;;;;4940044;29;20032;-86
2023/04/09 04:37:14;;;;;;;19.98;15.20;;;11.90;77.80;;;;;;4939862;29;20027;-86
2023/04/09 04:39:40;;;;;;;20.25;15.35;;;11.90;77.80;;;;;;4947413;29;20400;-88
2023/04/09 04:42:05;;;;;;;20.20;15.05;;;11.90;77.80;;;;;;4948309;29;20511;-87
2023/04/09 04:44:31;;;;;;;21.45;16.60;;;11.90;77.80;;;;;;4948458;29;20062;-89
2023/04/09 04:46:56;;;;;;;19.33;14.98;;;11.90;77.70;;;;;;4947850;29;20027;-87
2023/04/09 04:49:22;;;;;;;20.73;15.82;;;11.90;77.70;;;;;;4938964;29;20520;-87
2023/04/09 04:51:47;;;;;;;20.98;15.25;;;11.90;77.70;;;;;;4958305;29;20030;-88
2023/04/09 04:54:13;;;;;;;20.50;15.00;;;11.90;77.70;;;;;;4940701;29;20098;-87
2023/04/09 04:56:39;;;;;;;21.63;16.08;;;11.90;77.70;;;;;;4957866;29;20578;-87
2023/04/09 04:59:04;;;;;;;20.05;15.07;;;11.90;77.70;;;;;;4940746;29;20035;-88
2023/04/09 05:01:30;;;;;;;21.25;16.23;;;11.90;78.30;;;;;;4962599;29;20077;-88
2023/04/09 05:03:55;;;;;;;22.88;16.45;;;11.90;77.80;;;;;;4959091;29;20039;-88
2023/04/09 05:06:20;;;;;;;21.35;15.90;;;11.90;77.70;;;;;;4941092;29;20065;-89
2023/04/09 05:08:46;;;;;;;19.80;15.32;;;11.90;77.70;;;;;;4942818;29;20027;-83
2023/04/09 05:11:12;;;;;;;20.30;15.43;;;11.90;77.80;;;;;;4956238;29;20066;-81
2023/04/09 05:13:37;;;;;;;20.88;15.60;;;11.90;77.80;;;;;;4935914;28;20031;-84
2023/04/09 05:16:03;;;;;;;21.00;16.05;;;11.80;77.60;;;;;;4948389;29;20087;-85
2023/04/09 05:18:28;;;;;;;20.23;15.57;;;11.90;77.80;;;;;;4939548;29;20042;-85
2023/04/09 05:20:54;;;;;;;21.20;16.30;;;11.90;77.70;;;;;;4938067;29;20571;-83
2023/04/09 05:23:20;;;;;;;21.05;16.02;;;11.90;77.70;;;;;;4936913;29;20117;-82
2023/04/09 05:25:47;;;;;;;20.50;15.77;;;11.90;77.70;;;;;;4937860;29;20027;-82
2023/04/09 05:28:13;;;;;;;21.58;16.13;;;11.90;77.70;;;;;;4938994;29;20031;-82
2023/04/09 05:30:39;;;;;;;21.95;16.05;;;11.90;77.70;;;;;;4939673;29;20138;-82
2023/04/09 05:33:04;;;;;;;22.65;16.85;;;11.90;77.80;;;;;;4940038;29;20023;-86
2023/04/09 05:35:30;;;;;;;22.25;16.77;;;11.90;77.70;;;;;;4936828;29;20031;-83
2023/04/09 05:37:55;;;;;;;21.42;15.38;;;12.40;78.00;;;;;;4938485;29;20039;-83
2023/04/09 05:40:21;;;;;;;23.95;16.80;;;11.90;77.70;;;;;;4939165;29;20038;-85
2023/04/09 05:42:46;;;;;;;22.25;17.23;;;11.90;77.70;;;;;;4939057;29;20028;-82
2023/04/09 05:45:12;;;;;;;22.08;16.73;;;12.00;77.80;;;;;;4938129;29;20054;-82
2023/04/09 05:47:37;;;;;;;21.88;16.20;;;11.90;77.70;;;;;;4938487;29;20078;-82
2023/04/09 05:50:04;;;;;;;21.10;16.30;;;11.90;77.80;;;;;;4939206;29;20023;-84
2023/04/09 05:52:29;;;;;;;21.33;16.73;;;11.90;77.80;;;;;;4939177;29;20050;-81
2023/04/09 05:55:04;;;;;;;21.02;15.70;;;11.90;77.80;;;;;;4938808;29;20031;-86
2023/04/09 05:57:30;;;;;;;21.63;16.45;;;11.90;77.80;;;;;;4937985;29;20039;-81
2023/04/09 05:59:56;;;;;;;21.42;16.00;;;11.90;77.80;;;;;;4937463;29;20114;-85
2023/04/09 06:02:21;;;;;;;20.75;15.88;;;11.90;77.80;;;;;;4936098;29;20125;-77
2023/04/09 06:04:47;;;;;;;22.15;16.02;;;11.80;77.80;;;;;;4953446;29;20039;-81
2023/04/09 06:07:12;;;;;;;21.85;16.60;;;11.80;77.80;;;;;;4937523;29;20023;-82
2023/04/09 06:09:38;;;;;;;21.55;15.88;;;11.90;77.80;;;;;;4940084;29;20031;-79
2023/04/09 06:12:03;;;;;;;21.83;16.35;;;11.90;77.80;;;;;;4940544;29;20528;-82
2023/04/09 06:14:31;;;;;;;20.05;15.23;;;11.90;77.80;;;;;;4940639;29;20023;-83
2023/04/09 06:16:58;;;;;;;20.15;15.60;;;11.80;77.80;;;;;;4939283;29;20055;-80
2023/04/09 06:19:23;;;;;;;21.92;16.48;;;11.90;77.80;;;;;;4937786;29;20102;-83
2023/04/09 06:21:49;;;;;;;21.60;16.30;;;11.90;77.80;;;;;;4939133;29;20488;-85
2023/04/09 06:24:14;;;;;;;21.50;16.10;;;11.90;77.80;;;;;;4956177;29;20023;-77
2023/04/09 06:26:40;;;;;;;20.38;16.02;;;11.90;77.70;;;;;;4940384;29;20027;-80
2023/04/09 06:29:06;;;;;;;20.92;16.88;;;11.90;77.60;;;;;;4939201;29;20019;-80
2023/04/09 06:31:32;;;;;;;21.00;16.25;;;11.90;77.70;;;;;;4937926;29;20034;-78
2023/04/09 06:33:57;;;;;;;19.50;14.85;;;11.90;77.80;;;;;;4937984;29;20031;-80
2023/04/09 06:36:23;;;;;;;21.35;16.55;;;11.90;77.70;;;;;;4936986;29;20041;-82
2023/04/09 06:38:49;;;;;;;22.00;16.52;;;11.90;77.80;;;;;;4954901;29;20050;-81
2023/04/09 06:41:15;;;;;;;21.63;15.85;;;11.90;77.70;;;;;;4937296;29;20042;-82
2023/04/09 06:43:40;;;;;;;21.20;16.08;;;11.90;77.70;;;;;;4937874;29;20503;-80
2023/04/09 06:46:06;;;;;;;20.58;15.88;;;11.80;77.70;;;;;;4937315;29;20549;-81
2023/04/09 06:48:31;;;;;;;20.88;15.68;;;11.90;77.70;;;;;;4954455;29;20508;-80
2023/04/09 06:50:57;;;;;;;21.05;16.35;;;11.90;77.70;;;;;;4937165;29;20030;-80
2023/04/09 06:53:22;;;;;;;22.13;17.05;;;11.90;77.70;;;;;;4964206;29;20563;-80
2023/04/09 06:55:48;;;;;;;21.35;15.88;;;11.90;77.60;;;;;;4937566;29;20043;-80
2023/04/09 06:58:13;;;;;;;20.40;15.55;;;11.90;77.70;;;;;;4938035;29;20058;-81
2023/04/09 07:00:39;;;;;;;20.55;15.90;;;11.90;77.70;;;;;;4938148;29;20540;-81
2023/04/09 07:03:07;;;;;;;19.92;16.08;;;11.90;77.70;;;;;;4936112;29;20033;-80
2023/04/09 07:05:33;;;;;;;21.83;16.33;;;11.90;77.70;;;;;;4940143;29;20085;-81
2023/04/09 07:07:59;;;;;;;22.83;16.67;;;11.90;77.70;;;;;;4935639;29;20031;-83
2023/04/09 07:10:24;;;;;;;21.10;16.33;;;11.90;77.60;;;;;;4935538;29;20035;-80
2023/04/09 07:12:50;;;;;;;22.60;17.00;;;11.90;77.70;;;;;;4956360;29;20030;-81
2023/04/09 07:15:15;;;;;;;21.83;16.17;;;11.90;77.70;;;;;;4955320;29;20034;-80
2023/04/09 07:17:41;;;;;;;20.98;16.55;;;11.90;77.60;;;;;;4936286;29;20039;-81
2023/04/09 07:20:07;;;;;;;21.60;16.50;;;11.90;77.60;;;;;;4936704;29;20031;-80
2023/04/09 07:22:32;;;;;;;21.48;16.50;;;11.90;77.60;;;;;;4936721;29;20033;-81
2023/04/09 07:24:58;;;;;;;20.75;16.17;;;11.90;77.50;;;;;;4936212;29;20484;-79
2023/04/09 07:27:25;;;;;;;21.48;16.60;;;11.90;77.50;;;;;;4936539;29;20015;-79
2023/04/09 07:29:52;;;;;;;21.25;16.63;;;11.90;77.40;;;;;;4936135;29;20436;-82
2023/04/09 07:32:18;;;;;;;21.45;16.75;;;11.90;77.40;;;;;;4935732;29;20599;-80
2023/04/09 07:34:44;;;;;;;22.05;16.75;;;11.90;77.40;;;;;;4951240;29;20119;-79
2023/04/09 07:37:10;;;;;;;21.60;16.73;;;11.90;77.40;;;;;;4935750;29;20063;-79
2023/04/09 07:39:35;;;;;;;23.25;17.63;;;12.00;77.40;;;;;;4956146;29;20543;-79
2023/04/09 07:42:02;;;;;;;22.50;17.70;;;11.90;77.30;;;;;;4956843;29;20031;-80
2023/04/09 07:44:28;;;;;;;20.00;16.27;;;12.00;77.50;;;;;;4941444;29;20027;-80
2023/04/09 07:46:53;;;;;;;22.80;17.05;;;11.90;77.40;;;;;;4942544;29;20598;-80
2023/04/09 07:49:20;;;;;;;21.52;17.02;;;12.00;77.40;;;;;;4945276;29;20057;-82
2023/04/09 07:51:45;;;;;;;21.40;16.92;;;12.00;77.40;;;;;;4943054;29;20085;-87
2023/04/09 07:54:11;;;;;;;21.90;17.02;;;12.00;77.30;;;;;;4943882;29;20125;-83
2023/04/09 07:56:37;;;;;;;22.17;17.08;;;11.90;77.20;;;;;;4942023;29;20039;-80
2023/04/09 07:59:02;;;;;;;23.10;17.33;;;12.00;77.10;;;;;;4943088;29;20038;-81
2023/04/09 08:01:27;;;;;;;21.42;16.85;;;12.00;77.10;;;;;;4940654;29;20031;-81
2023/04/09 08:03:55;;;;;;;21.98;17.02;;;12.00;77.10;;;;;;4941141;29;20448;-81
2023/04/09 08:06:21;;;;;;;21.48;16.40;;;12.00;77.10;;;;;;4958300;29;20081;-82
2023/04/09 08:08:46;;;;;;;21.55;16.58;;;12.00;77.00;;;;;;4941174;29;20110;-82
2023/04/09 08:11:12;;;;;;;21.20;16.48;;;12.10;77.00;;;;;;4941398;29;20031;-84
2023/04/09 08:13:38;;;;;;;21.02;16.23;;;12.10;76.90;;;;;;4940187;29;20830;-84
2023/04/09 08:16:03;;;;;;;21.35;16.48;;;12.10;76.90;;;;;;4940209;29;20860;-85
2023/04/09 08:18:29;;;;;;;21.88;17.00;;;12.10;76.80;;;;;;4940625;29;20078;-83
2023/04/09 08:20:56;;;;;;;21.05;16.17;;;12.20;76.80;;;;;;4939453;29;20513;-84
2023/04/09 08:23:21;;;;;;;20.48;15.73;;;12.20;76.80;;;;;;4939583;29;20500;-85
2023/04/09 08:25:47;;;;;;;21.30;16.90;;;12.10;76.80;;;;;;4939857;29;20038;-83
2023/04/09 08:28:12;;;;;;;21.67;17.30;;;12.80;77.20;;;;;;4940023;29;20058;-82
2023/04/09 08:30:38;;;;;;;22.63;17.23;;;13.50;77.60;;;;;;4940007;29;20063;-83
2023/04/09 08:33:04;;;;;;;20.30;16.13;;;12.30;76.90;;;;;;4939099;29;20147;-85
2023/04/09 08:35:30;;;;;;;22.20;16.90;;;12.10;76.80;;;;;;4938934;29;20027;-83
2023/04/09 08:37:56;;;;;;;20.50;16.13;;;12.20;76.90;;;;;;4938629;29;20078;-82
2023/04/09 08:40:22;;;;;;;20.50;16.33;;;13.20;77.30;;;;;;4938680;29;20550;-83
2023/04/09 08:42:54;;;;;;;20.73;16.38;;;12.20;76.90;;;;;;4938884;29;20133;-83
2023/04/09 08:45:20;;;;;;;21.95;16.73;;;12.20;76.80;;;;;;4939316;29;20030;-84
2023/04/09 08:47:49;;;;;;;20.90;15.85;;;12.30;76.80;;;;;;4939318;29;20023;-84
2023/04/09 08:50:15;;;;;;;20.38;16.42;;;12.30;76.60;;;;;;4939553;29;20037;-83
2023/04/09 08:52:41;;;;;;;20.00;16.17;;;12.40;76.50;;;;;;4941481;29;20122;-83
2023/04/09 08:55:07;;;;;;;21.63;16.63;;;12.40;76.30;;;;;;4938901;29;20043;-82
2023/04/09 08:57:39;;;;;;;19.50;15.35;;;12.50;76.30;;;;;;4956806;29;20031;-82
2023/04/09 09:00:06;;;;;;;19.35;15.30;;;12.50;76.20;;;;;;4941160;29;20039;-84
2023/04/09 09:02:32;;;;;;;19.13;15.25;;;12.50;76.10;;;;;;4940766;29;20062;-83
2023/04/09 09:05:00;;;;;;;21.00;15.93;;;12.50;76.00;;;;;;4938440;29;20063;-83
2023/04/09 09:07:30;;;;;;;19.85;15.30;;;12.60;76.10;;;;;;4938807;29;20023;-84
2023/04/09 09:10:02;;;;;;;21.55;16.33;;;12.50;75.90;;;;;;4939607;29;20023;-78
2023/04/09 09:12:37;;;;;;;19.00;15.25;;;12.50;75.90;;;;;;4957588;29;20724;-80
2023/04/09 09:15:04;;;;;;;19.05;15.55;;;12.60;75.90;;;;;;4942901;29;20031;-83
2023/04/09 09:17:30;;;;;;;20.60;16.50;;;12.60;75.80;;;;;;4941119;29;20035;-84
2023/04/09 09:19:55;;;;;;;21.88;15.82;;;12.70;75.80;;;;;;4942190;29;20031;-78
2023/04/09 09:22:21;;;;;;;21.17;16.42;;;12.70;75.70;;;;;;4940879;29;20170;-82
2023/04/09 09:24:47;;;;;;;21.45;16.77;;;12.80;75.70;;;;;;4940420;29;20027;-80
2023/04/09 09:27:35;;;;;;;21.23;16.02;;;12.80;75.40;;;;;;4941567;29;20029;-85
2023/04/09 09:30:03;;;;;;;21.38;16.33;;;12.80;75.40;;;;;;4943797;29;20053;-88
2023/04/09 09:32:29;;;;;;;21.05;16.40;;;12.80;75.30;;;;;;4940646;29;20393;-86
2023/04/09 09:37:59;;;;;;;20.20;15.77;;;12.90;75.30;;;;;;4936094;29;20067;-83
2023/04/09 09:40:34;;;;;;;20.20;15.75;;;13.00;75.30;;;;;;4930024;29;20035;-83
2023/04/09 09:42:59;;;;;;;20.15;16.63;;;13.60;75.60;;;;;;4921790;29;20027;-77
2023/04/09 09:45:25;;;;;;;20.23;15.73;;;12.10;74.60;;;;;;4935019;29;20038;-79
2023/04/09 09:47:53;;;;;;;20.20;16.25;;;13.00;75.20;;;;;;4940300;29;20043;-85
2023/04/09 09:50:22;;;;;;;19.10;15.05;;;13.00;75.10;;;;;;4933608;29;20038;-84
2023/04/09 09:52:48;;;;;;;20.25;15.68;;;13.00;75.30;;;;;;4940223;29;20882;-84
2023/04/09 09:55:14;;;;;;;20.25;15.25;;;13.00;75.20;;;;;;4939212;29;20036;-86
2023/04/09 09:57:44;;;;;;;19.98;15.65;;;13.10;75.20;;;;;;4939774;29;20507;-85
2023/04/09 10:00:12;;;;;;;18.63;15.05;;;13.10;75.20;;;;;;4941423;29;20038;-89
2023/04/09 10:02:55;;;;;;;19.13;15.80;;;13.10;75.20;;;;;;4922556;29;20043;-85
2023/04/09 10:05:25;;;;;;;19.38;15.10;;;13.10;75.10;;;;;;4923746;29;20038;-87
2023/04/09 10:07:53;;;;;;;19.95;15.40;;;13.20;75.00;;;;;;4940564;29;20020;-86
2023/04/09 10:10:19;;;;;;;19.67;15.50;;;13.20;75.00;;;;;;4943420;29;20034;-85
2023/04/09 10:12:45;;;;;;;19.02;14.68;;;13.20;75.00;;;;;;4943865;29;20032;-89
2023/04/09 10:15:11;;;;;;;20.88;15.68;;;13.20;75.00;;;;;;4942124;29;20078;-86
2023/04/09 10:17:37;;;;;;;19.33;15.35;;;13.20;74.90;;;;;;4940430;29;20032;-85
2023/04/09 10:20:21;;;;;;;18.88;14.90;;;13.60;75.00;;;;;;4938936;29;20028;-87
2023/04/09 10:22:50;;;;;;;20.95;15.55;;;13.20;74.90;;;;;;4953033;29;20028;-89
2023/04/09 10:25:16;;;;;;;18.52;14.63;;;14.90;75.70;;;;;;4945171;29;20122;-85
2023/04/09 10:27:47;;;;;;;18.80;14.43;;;13.30;74.70;;;;;;4941582;29;20027;-84
2023/04/09 10:30:32;;;;;;;18.95;14.95;;;13.40;74.90;;;;;;4939747;29;20020;-84
2023/04/09 10:33:15;;;;;;;18.88;14.93;;;13.30;74.80;;;;;;4941007;29;20437;-84
2023/04/09 10:35:41;;;;;;;19.08;14.70;;;13.30;74.70;;;;;;4923925;29;20039;-84
2023/04/09 10:38:08;;;;;;;18.88;14.80;;;13.30;75.00;;;;;;4943025;29;20055;-86
2023/04/09 10:40:39;;;;;;;19.58;15.27;;;13.30;74.90;;;;;;4926627;29;20465;-86
2023/04/09 10:43:08;;;;;;;20.40;15.55;;;13.30;74.90;;;;;;4940845;29;20038;-86
2023/04/09 10:45:43;;;;;;;18.25;14.32;;;13.30;74.80;;;;;;4941121;29;20055;-86
2023/04/09 10:48:21;;;;;;;18.70;14.02;;;13.40;75.10;;;;;;4941033;29;20035;-86
2023/04/09 10:50:51;;;;;;;18.85;14.52;;;13.60;75.10;;;;;;4941658;29;20023;-85
2023/04/09 10:53:24;;;;;;;17.95;14.45;;;12.20;74.40;;;;;;4942805;29;20023;-87
2023/04/09 10:55:52;;;;;;;17.42;13.75;;;13.70;75.40;;;;;;4925245;29;20408;-86
2023/04/09 10:58:18;;;;;;;17.13;13.65;;;13.70;75.30;;;;;;4927549;29;20027;-88
2023/04/09 11:00:48;;;;;;;18.23;13.93;;;13.50;75.20;;;;;;4941426;29;20126;-86
2023/04/09 11:03:33;;;;;;;17.50;13.75;;;13.30;75.20;;;;;;4941120;29;20035;-84
2023/04/09 11:06:42;;;;;;;17.00;13.63;;;13.20;75.20;;;;;;4943274;29;20118;-87
2023/04/09 11:09:19;;;;;;;16.98;13.15;;;13.20;75.40;;;;;;4943753;29;20118;-85
2023/04/09 11:11:56;;;;;;;18.17;14.38;;;13.20;75.60;;;;;;4946108;29;20080;-86
2023/04/09 11:14:22;;;;;;;18.92;14.43;;;13.60;75.80;;;;;;4945219;29;20039;-89
2023/04/09 11:16:48;;;;;;;17.65;13.73;;;13.20;76.20;;;;;;4943736;29;20032;-86
2023/04/09 11:19:14;;;;;;;17.08;13.55;;;13.10;75.70;;;;;;4943042;29;20036;-88
2023/04/09 11:21:45;;;;;;;18.35;13.88;;;13.50;75.90;;;;;;4943367;29;20618;-86
2023/04/09 11:24:14;;;;;;;18.02;13.35;;;13.10;75.70;;;;;;4938699;29;20027;-86
2023/04/09 11:26:40;;;;;;;17.20;13.65;;;14.40;76.50;;;;;;4936115;29;20032;-86
2023/04/09 11:29:09;;;;;;;17.58;13.60;;;13.50;76.50;;;;;;4936103;29;20317;-85
2023/04/09 11:31:35;;;;;;;16.30;13.23;;;13.00;75.80;;;;;;4940489;29;20074;-86
2023/04/09 11:34:02;;;;;;;18.00;14.55;;;13.80;76.20;;;;;;4938831;29;20126;-87
2023/04/09 11:36:28;;;;;;;18.70;13.35;;;13.00;75.90;;;;;;4939250;29;20154;-86
2023/04/09 11:38:58;;;;;;;16.80;13.20;;;13.60;76.20;;;;;;4939700;29;20079;-84
2023/04/09 11:41:52;;;;;;;16.92;13.13;;;12.90;76.00;;;;;;4942043;29;20027;-85
2023/04/09 11:47:07;;;;;;;17.75;13.77;;;12.90;75.90;;;;;;5030827;23;20087;-85
2023/04/09 11:50:06;;;;;;;17.23;13.15;;;13.00;76.00;;;;;;4940363;29;20023;-81
2023/04/09 11:56:13;;;;;;;18.33;14.57;;;13.00;76.00;;;;;;4895348;29;20032;-83
2023/04/09 11:58:46;;;;;;;16.13;12.10;;;12.90;76.00;;;;;;4899372;29;20033;-82
2023/04/09 12:01:11;;;;;;;17.70;13.35;;;12.70;75.90;;;;;;4915996;29;20046;-83
2023/04/09 12:03:37;;;;;;;16.55;13.02;;;13.00;76.10;;;;;;4939728;29;20511;-83
2023/04/09 12:06:10;;;;;;;17.77;13.65;;;12.20;75.70;;;;;;4927024;29;20031;-85
2023/04/09 12:08:36;;;;;;;17.33;13.40;;;12.70;76.00;;;;;;4937679;29;20555;-81
2023/04/09 12:11:15;;;;;;;17.17;13.10;;;12.90;76.20;;;;;;4922967;29;20065;-82
2023/04/09 12:13:43;;;;;;;16.70;12.95;;;12.10;75.60;;;;;;4924554;29;20038;-83
2023/04/09 12:16:16;;;;;;;17.83;13.00;;;13.30;76.30;;;;;;4919343;29;20036;-81
2023/04/09 12:18:41;;;;;;;16.92;12.65;;;13.40;76.60;;;;;;4919853;29;20036;-83
2023/04/09 12:21:07;;;;;;;16.27;13.10;;;12.30;75.90;;;;;;4920571;29;20034;-82
2023/04/09 12:23:33;;;;;;;17.38;12.90;;;12.90;76.30;;;;;;4941334;29;20028;-84
2023/04/09 12:26:00;;;;;;;16.15;12.70;;;13.80;76.70;;;;;;4944476;29;20028;-85
2023/04/09 12:28:25;;;;;;;16.35;12.85;;;13.90;76.80;;;;;;4943976;29;20016;-83
2023/04/09 12:31:01;;;;;;;17.25;12.68;;;12.80;76.30;;;;;;4928051;29;20043;-83
2023/04/09 12:34:01;;;;;;;18.13;13.10;;;12.40;76.10;;;;;;4926828;29;20400;-85
2023/04/09 12:36:33;;;;;;;17.42;13.60;;;12.80;76.40;;;;;;4926191;29;20035;-82
2023/04/09 12:39:02;;;;;;;17.88;13.85;;;13.50;76.80;;;;;;4924645;29;20032;-82
2023/04/09 12:41:28;;;;;;;16.67;13.30;;;12.80;77.10;;;;;;4939334;29;20485;-81